sensor_id;sensor_type;location;lat;lon;timestamp;P1;durP1;ratioP1;P2;durP2;ratioP2
9076;SDS011;4574;51.072;17.174;2022-11-20T00:02:03;80.97;;;39.00;;
9076;SDS011;4574;51.072;17.174;2022-11-20T00:04:32;93.07;;;42.30;;
9076;SDS011;4574;51.072;17.174;2022-11-20T00:07:00;78.63;;;35.77;;
9076;SDS011;4574;51.072;17.174;2022-11-20T00:09:29;82.37;;;36.40;;
9076;SDS011;4574;51.072;17.174;2022-11-20T00:11:57;63.93;;;30.00;;
9076;SDS011;4574;51.072;17.174;2022-11-20T00:14:25;60.07;;;28.43;;
9076;SDS011;4574;51.072;17.174;2022-11-20T00:16:54;60.43;;;27.37;;
9076;SDS011;4574;51.072;17.174;2022-11-20T00:19:24;59.13;;;26.53;;
9076;SDS011;4574;51.072;17.174;2022-11-20T00:21:52;55.30;;;27.73;;
9076;SDS011;4574;51.072;17.174;2022-11-20T00:24:21;71.47;;;34.17;;
9076;SDS011;4574;51.072;17.174;2022-11-20T00:26:50;70.90;;;36.70;;
9076;SDS011;4574;51.072;17.174;2022-11-20T00:29:18;93.13;;;45.73;;
9076;SDS011;4574;51.072;17.174;2022-11-20T00:31:47;86.93;;;45.87;;
9076;SDS011;4574;51.072;17.174;2022-11-20T00:34:15;81.30;;;38.83;;
9076;SDS011;4574;51.072;17.174;2022-11-20T00:36:45;72.87;;;35.07;;
9076;SDS011;4574;51.072;17.174;2022-11-20T00:39:14;66.83;;;33.40;;
9076;SDS011;4574;51.072;17.174;2022-11-20T00:41:42;77.63;;;38.17;;
9076;SDS011;4574;51.072;17.174;2022-11-20T00:44:10;82.13;;;38.97;;
9076;SDS011;4574;51.072;17.174;2022-11-20T00:46:39;84.80;;;42.30;;
9076;SDS011;4574;51.072;17.174;2022-11-20T00:49:07;78.00;;;38.17;;
9076;SDS011;4574;51.072;17.174;2022-11-20T00:51:36;80.77;;;37.00;;
9076;SDS011;4574;51.072;17.174;2022-11-20T00:54:05;75.70;;;35.27;;
9076;SDS011;4574;51.072;17.174;2022-11-20T00:56:34;59.27;;;31.07;;
9076;SDS011;4574;51.072;17.174;2022-11-20T00:59:02;66.67;;;32.07;;
9076;SDS011;4574;51.072;17.174;2022-11-20T01:01:31;60.53;;;30.43;;
9076;SDS011;4574;51.072;17.174;2022-11-20T01:04:00;62.17;;;29.67;;
9076;SDS011;4574;51.072;17.174;2022-11-20T01:06:29;60.80;;;30.90;;
9076;SDS011;4574;51.072;17.174;2022-11-20T01:09:00;58.00;;;29.27;;
9076;SDS011;4574;51.072;17.174;2022-11-20T01:11:32;55.00;;;29.10;;
9076;SDS011;4574;51.072;17.174;2022-11-20T01:14:03;66.00;;;32.17;;
9076;SDS011;4574;51.072;17.174;2022-11-20T01:16:34;58.47;;;29.73;;
9076;SDS011;4574;51.072;17.174;2022-11-20T01:19:04;73.63;;;32.63;;
9076;SDS011;4574;51.072;17.174;2022-11-20T01:21:34;71.40;;;33.03;;
9076;SDS011;4574;51.072;17.174;2022-11-20T01:24:05;71.73;;;33.70;;
9076;SDS011;4574;51.072;17.174;2022-11-20T01:26:37;61.43;;;28.70;;
9076;SDS011;4574;51.072;17.174;2022-11-20T01:29:08;60.80;;;27.90;;
9076;SDS011;4574;51.072;17.174;2022-11-20T01:31:41;52.50;;;26.43;;
9076;SDS011;4574;51.072;17.174;2022-11-20T01:34:10;55.37;;;26.10;;
9076;SDS011;4574;51.072;17.174;2022-11-20T01:36:41;54.70;;;25.70;;
9076;SDS011;4574;51.072;17.174;2022-11-20T01:39:11;48.63;;;23.50;;
9076;SDS011;4574;51.072;17.174;2022-11-20T01:41:43;48.20;;;24.07;;
9076;SDS011;4574;51.072;17.174;2022-11-20T01:44:49;44.27;;;22.90;;
9076;SDS011;4574;51.072;17.174;2022-11-20T01:47:21;52.57;;;24.73;;
9076;SDS011;4574;51.072;17.174;2022-11-20T01:49:55;53.07;;;24.20;;
9076;SDS011;4574;51.072;17.174;2022-11-20T01:52:28;49.80;;;25.50;;
9076;SDS011;4574;51.072;17.174;2022-11-20T01:55:01;46.93;;;22.00;;
9076;SDS011;4574;51.072;17.174;2022-11-20T01:57:35;45.20;;;22.27;;
9076;SDS011;4574;51.072;17.174;2022-11-20T02:00:06;48.93;;;25.77;;
9076;SDS011;4574;51.072;17.174;2022-11-20T02:02:36;48.23;;;25.03;;
9076;SDS011;4574;51.072;17.174;2022-11-20T02:05:09;46.77;;;24.77;;
9076;SDS011;4574;51.072;17.174;2022-11-20T02:07:45;48.40;;;25.33;;
9076;SDS011;4574;51.072;17.174;2022-11-20T02:10:14;53.33;;;25.37;;
9076;SDS011;4574;51.072;17.174;2022-11-20T02:12:44;55.13;;;26.93;;
9076;SDS011;4574;51.072;17.174;2022-11-20T02:15:30;52.03;;;25.73;;
9076;SDS011;4574;51.072;17.174;2022-11-20T02:18:00;48.13;;;24.47;;
9076;SDS011;4574;51.072;17.174;2022-11-20T02:20:29;47.33;;;25.20;;
9076;SDS011;4574;51.072;17.174;2022-11-20T02:22:59;50.27;;;23.97;;
9076;SDS011;4574;51.072;17.174;2022-11-20T02:25:34;50.07;;;24.03;;
9076;SDS011;4574;51.072;17.174;2022-11-20T02:28:04;49.10;;;23.63;;
9076;SDS011;4574;51.072;17.174;2022-11-20T02:30:33;48.30;;;24.33;;
9076;SDS011;4574;51.072;17.174;2022-11-20T02:33:01;45.40;;;22.80;;
9076;SDS011;4574;51.072;17.174;2022-11-20T02:35:40;45.47;;;23.67;;
9076;SDS011;4574;51.072;17.174;2022-11-20T02:38:13;49.00;;;24.20;;
9076;SDS011;4574;51.072;17.174;2022-11-20T02:40:44;46.00;;;23.47;;
9076;SDS011;4574;51.072;17.174;2022-11-20T02:43:19;44.47;;;22.50;;
9076;SDS011;4574;51.072;17.174;2022-11-20T02:45:48;44.87;;;23.63;;
9076;SDS011;4574;51.072;17.174;2022-11-20T02:48:16;47.83;;;24.67;;
9076;SDS011;4574;51.072;17.174;2022-11-20T02:50:44;56.73;;;25.87;;
9076;SDS011;4574;51.072;17.174;2022-11-20T02:53:13;50.13;;;24.53;;
9076;SDS011;4574;51.072;17.174;2022-11-20T02:55:41;49.13;;;24.67;;
9076;SDS011;4574;51.072;17.174;2022-11-20T02:58:11;49.93;;;23.93;;
9076;SDS011;4574;51.072;17.174;2022-11-20T03:00:40;45.47;;;23.13;;
9076;SDS011;4574;51.072;17.174;2022-11-20T03:03:08;45.60;;;22.80;;
9076;SDS011;4574;51.072;17.174;2022-11-20T03:05:37;46.90;;;23.30;;
9076;SDS011;4574;51.072;17.174;2022-11-20T03:08:05;44.20;;;21.73;;
9076;SDS011;4574;51.072;17.174;2022-11-20T03:10:33;49.60;;;24.97;;
9076;SDS011;4574;51.072;17.174;2022-11-20T03:13:02;48.23;;;24.97;;
9076;SDS011;4574;51.072;17.174;2022-11-20T03:15:32;48.87;;;24.07;;
9076;SDS011;4574;51.072;17.174;2022-11-20T03:18:00;50.57;;;25.83;;
9076;SDS011;4574;51.072;17.174;2022-11-20T03:20:29;47.30;;;25.13;;
9076;SDS011;4574;51.072;17.174;2022-11-20T03:22:57;51.63;;;25.70;;
9076;SDS011;4574;51.072;17.174;2022-11-20T03:25:25;50.67;;;25.00;;
9076;SDS011;4574;51.072;17.174;2022-11-20T03:27:54;50.30;;;24.10;;
9076;SDS011;4574;51.072;17.174;2022-11-20T03:30:22;50.03;;;24.30;;
9076;SDS011;4574;51.072;17.174;2022-11-20T03:32:57;50.23;;;24.37;;
9076;SDS011;4574;51.072;17.174;2022-11-20T03:35:26;52.23;;;25.37;;
9076;SDS011;4574;51.072;17.174;2022-11-20T03:37:55;50.03;;;27.57;;
9076;SDS011;4574;51.072;17.174;2022-11-20T03:40:23;52.33;;;26.40;;
9076;SDS011;4574;51.072;17.174;2022-11-20T03:42:51;52.23;;;26.83;;
9076;SDS011;4574;51.072;17.174;2022-11-20T03:45:20;55.50;;;26.00;;
9076;SDS011;4574;51.072;17.174;2022-11-20T03:47:48;52.83;;;26.73;;
9076;SDS011;4574;51.072;17.174;2022-11-20T03:50:18;48.40;;;25.37;;
9076;SDS011;4574;51.072;17.174;2022-11-20T03:52:47;50.37;;;23.90;;
9076;SDS011;4574;51.072;17.174;2022-11-20T03:55:15;45.97;;;24.60;;
9076;SDS011;4574;51.072;17.174;2022-11-20T03:57:43;51.30;;;25.90;;
9076;SDS011;4574;51.072;17.174;2022-11-20T04:00:12;55.33;;;27.13;;
9076;SDS011;4574;51.072;17.174;2022-11-20T04:02:41;47.37;;;25.63;;
9076;SDS011;4574;51.072;17.174;2022-11-20T04:05:10;54.40;;;26.87;;
9076;SDS011;4574;51.072;17.174;2022-11-20T04:07:39;56.40;;;26.03;;
9076;SDS011;4574;51.072;17.174;2022-11-20T04:10:08;51.57;;;25.67;;
9076;SDS011;4574;51.072;17.174;2022-11-20T04:12:37;45.47;;;24.93;;
9076;SDS011;4574;51.072;17.174;2022-11-20T04:15:05;49.40;;;24.53;;
9076;SDS011;4574;51.072;17.174;2022-11-20T04:17:34;46.40;;;22.53;;
9076;SDS011;4574;51.072;17.174;2022-11-20T04:20:03;46.30;;;25.20;;
9076;SDS011;4574;51.072;17.174;2022-11-20T04:22:32;49.10;;;23.23;;
9076;SDS011;4574;51.072;17.174;2022-11-20T04:25:02;53.90;;;27.47;;
9076;SDS011;4574;51.072;17.174;2022-11-20T04:27:30;51.47;;;26.07;;
9076;SDS011;4574;51.072;17.174;2022-11-20T04:29:59;44.50;;;24.00;;
9076;SDS011;4574;51.072;17.174;2022-11-20T04:32:27;45.67;;;24.90;;
9076;SDS011;4574;51.072;17.174;2022-11-20T04:34:56;50.97;;;25.10;;
9076;SDS011;4574;51.072;17.174;2022-11-20T04:37:24;54.13;;;25.17;;
9076;SDS011;4574;51.072;17.174;2022-11-20T04:39:53;47.63;;;23.37;;
9076;SDS011;4574;51.072;17.174;2022-11-20T04:42:23;44.70;;;23.50;;
9076;SDS011;4574;51.072;17.174;2022-11-20T04:44:57;55.13;;;24.57;;
9076;SDS011;4574;51.072;17.174;2022-11-20T04:47:25;48.90;;;22.97;;
9076;SDS011;4574;51.072;17.174;2022-11-20T04:49:53;44.87;;;21.77;;
9076;SDS011;4574;51.072;17.174;2022-11-20T04:52:22;41.60;;;22.53;;
9076;SDS011;4574;51.072;17.174;2022-11-20T04:54:50;45.93;;;23.60;;
9076;SDS011;4574;51.072;17.174;2022-11-20T04:57:20;49.93;;;24.40;;
9076;SDS011;4574;51.072;17.174;2022-11-20T04:59:50;49.10;;;24.40;;
9076;SDS011;4574;51.072;17.174;2022-11-20T05:02:18;49.83;;;23.33;;
9076;SDS011;4574;51.072;17.174;2022-11-20T05:04:47;47.83;;;23.57;;
9076;SDS011;4574;51.072;17.174;2022-11-20T05:07:15;52.00;;;24.50;;
9076;SDS011;4574;51.072;17.174;2022-11-20T05:09:44;50.33;;;24.63;;
9076;SDS011;4574;51.072;17.174;2022-11-20T05:12:12;46.00;;;24.50;;
9076;SDS011;4574;51.072;17.174;2022-11-20T05:14:41;48.23;;;24.07;;
9076;SDS011;4574;51.072;17.174;2022-11-20T05:17:11;51.20;;;24.93;;
9076;SDS011;4574;51.072;17.174;2022-11-20T05:19:39;51.10;;;24.50;;
9076;SDS011;4574;51.072;17.174;2022-11-20T05:22:08;52.57;;;24.50;;
9076;SDS011;4574;51.072;17.174;2022-11-20T05:24:36;48.10;;;24.23;;
9076;SDS011;4574;51.072;17.174;2022-11-20T05:27:04;52.93;;;26.03;;
9076;SDS011;4574;51.072;17.174;2022-11-20T05:29:33;57.40;;;28.73;;
9076;SDS011;4574;51.072;17.174;2022-11-20T05:32:01;60.87;;;26.80;;
9076;SDS011;4574;51.072;17.174;2022-11-20T05:34:31;63.87;;;27.53;;
9076;SDS011;4574;51.072;17.174;2022-11-20T05:36:59;53.40;;;26.07;;
9076;SDS011;4574;51.072;17.174;2022-11-20T05:39:28;55.73;;;26.70;;
9076;SDS011;4574;51.072;17.174;2022-11-20T05:41:56;53.47;;;26.10;;
9076;SDS011;4574;51.072;17.174;2022-11-20T05:44:39;50.23;;;23.77;;
9076;SDS011;4574;51.072;17.174;2022-11-20T05:47:07;51.20;;;24.90;;
9076;SDS011;4574;51.072;17.174;2022-11-20T05:49:37;51.77;;;25.53;;
9076;SDS011;4574;51.072;17.174;2022-11-20T05:52:05;51.60;;;25.07;;
9076;SDS011;4574;51.072;17.174;2022-11-20T05:54:34;56.13;;;26.77;;
9076;SDS011;4574;51.072;17.174;2022-11-20T05:57:02;55.50;;;24.70;;
9076;SDS011;4574;51.072;17.174;2022-11-20T05:59:31;61.47;;;26.73;;
9076;SDS011;4574;51.072;17.174;2022-11-20T06:01:59;62.80;;;28.33;;
9076;SDS011;4574;51.072;17.174;2022-11-20T06:04:27;71.80;;;29.13;;
9076;SDS011;4574;51.072;17.174;2022-11-20T06:06:57;70.20;;;28.53;;
9076;SDS011;4574;51.072;17.174;2022-11-20T06:09:26;63.70;;;27.43;;
9076;SDS011;4574;51.072;17.174;2022-11-20T06:11:54;66.83;;;27.77;;
9076;SDS011;4574;51.072;17.174;2022-11-20T06:14:23;68.33;;;29.33;;
9076;SDS011;4574;51.072;17.174;2022-11-20T06:16:51;85.57;;;31.57;;
9076;SDS011;4574;51.072;17.174;2022-11-20T06:19:20;114.17;;;43.27;;
9076;SDS011;4574;51.072;17.174;2022-11-20T06:21:49;111.37;;;41.40;;
9076;SDS011;4574;51.072;17.174;2022-11-20T06:24:19;80.23;;;32.83;;
9076;SDS011;4574;51.072;17.174;2022-11-20T06:26:47;81.73;;;34.37;;
9076;SDS011;4574;51.072;17.174;2022-11-20T06:29:16;79.43;;;34.50;;
9076;SDS011;4574;51.072;17.174;2022-11-20T06:31:44;96.87;;;37.20;;
9076;SDS011;4574;51.072;17.174;2022-11-20T06:34:13;86.10;;;35.37;;
9076;SDS011;4574;51.072;17.174;2022-11-20T06:36:41;74.07;;;33.33;;
9076;SDS011;4574;51.072;17.174;2022-11-20T06:39:09;76.63;;;32.00;;
9076;SDS011;4574;51.072;17.174;2022-11-20T06:41:40;59.93;;;30.90;;
9076;SDS011;4574;51.072;17.174;2022-11-20T06:44:08;60.40;;;29.07;;
9076;SDS011;4574;51.072;17.174;2022-11-20T06:46:37;60.03;;;30.60;;
9076;SDS011;4574;51.072;17.174;2022-11-20T06:49:05;68.27;;;33.63;;
9076;SDS011;4574;51.072;17.174;2022-11-20T06:51:33;72.47;;;35.23;;
9076;SDS011;4574;51.072;17.174;2022-11-20T06:54:02;74.20;;;35.30;;
9076;SDS011;4574;51.072;17.174;2022-11-20T06:56:30;61.33;;;31.37;;
9076;SDS011;4574;51.072;17.174;2022-11-20T06:59:00;59.33;;;30.33;;
9076;SDS011;4574;51.072;17.174;2022-11-20T07:01:32;60.67;;;29.00;;
9076;SDS011;4574;51.072;17.174;2022-11-20T07:04:01;60.77;;;29.90;;
9076;SDS011;4574;51.072;17.174;2022-11-20T07:06:30;66.53;;;31.93;;
9076;SDS011;4574;51.072;17.174;2022-11-20T07:08:59;91.73;;;44.40;;
9076;SDS011;4574;51.072;17.174;2022-11-20T07:11:28;81.33;;;38.70;;
9076;SDS011;4574;51.072;17.174;2022-11-20T07:13:56;62.10;;;31.50;;
9076;SDS011;4574;51.072;17.174;2022-11-20T07:16:26;61.87;;;30.37;;
9076;SDS011;4574;51.072;17.174;2022-11-20T07:18:55;58.57;;;29.00;;
9076;SDS011;4574;51.072;17.174;2022-11-20T07:21:23;56.33;;;27.70;;
9076;SDS011;4574;51.072;17.174;2022-11-20T07:23:52;49.83;;;25.83;;
9076;SDS011;4574;51.072;17.174;2022-11-20T07:26:20;49.07;;;25.97;;
9076;SDS011;4574;51.072;17.174;2022-11-20T07:28:48;58.50;;;28.23;;
9076;SDS011;4574;51.072;17.174;2022-11-20T07:31:17;60.03;;;29.50;;
9076;SDS011;4574;51.072;17.174;2022-11-20T07:33:47;57.97;;;29.20;;
9076;SDS011;4574;51.072;17.174;2022-11-20T07:36:15;56.87;;;30.60;;
9076;SDS011;4574;51.072;17.174;2022-11-20T07:38:44;61.80;;;30.10;;
9076;SDS011;4574;51.072;17.174;2022-11-20T07:41:12;58.83;;;29.23;;
9076;SDS011;4574;51.072;17.174;2022-11-20T07:43:41;50.80;;;27.17;;
9076;SDS011;4574;51.072;17.174;2022-11-20T07:46:09;57.40;;;29.80;;
9076;SDS011;4574;51.072;17.174;2022-11-20T07:48:37;53.90;;;28.23;;
9076;SDS011;4574;51.072;17.174;2022-11-20T07:51:07;53.50;;;26.53;;
9076;SDS011;4574;51.072;17.174;2022-11-20T07:53:36;50.33;;;25.53;;
9076;SDS011;4574;51.072;17.174;2022-11-20T07:56:04;50.93;;;25.83;;
9076;SDS011;4574;51.072;17.174;2022-11-20T07:58:33;49.17;;;24.17;;
9076;SDS011;4574;51.072;17.174;2022-11-20T08:01:02;50.63;;;27.70;;
9076;SDS011;4574;51.072;17.174;2022-11-20T08:03:32;51.43;;;26.40;;
9076;SDS011;4574;51.072;17.174;2022-11-20T08:06:00;43.03;;;22.57;;
9076;SDS011;4574;51.072;17.174;2022-11-20T08:08:30;46.77;;;23.80;;
9076;SDS011;4574;51.072;17.174;2022-11-20T08:11:02;42.83;;;23.33;;
9076;SDS011;4574;51.072;17.174;2022-11-20T08:13:47;48.53;;;25.00;;
9076;SDS011;4574;51.072;17.174;2022-11-20T08:16:32;46.47;;;24.50;;
9076;SDS011;4574;51.072;17.174;2022-11-20T08:19:01;45.30;;;22.60;;
9076;SDS011;4574;51.072;17.174;2022-11-20T08:21:29;38.80;;;21.50;;
9076;SDS011;4574;51.072;17.174;2022-11-20T08:24:05;39.53;;;21.63;;
9076;SDS011;4574;51.072;17.174;2022-11-20T08:26:34;43.50;;;25.37;;
9076;SDS011;4574;51.072;17.174;2022-11-20T08:29:03;35.07;;;18.73;;
9076;SDS011;4574;51.072;17.174;2022-11-20T08:31:33;35.27;;;18.13;;
9076;SDS011;4574;51.072;17.174;2022-11-20T08:34:01;35.57;;;19.77;;
9076;SDS011;4574;51.072;17.174;2022-11-20T08:36:35;32.17;;;17.53;;
9076;SDS011;4574;51.072;17.174;2022-11-20T08:39:05;28.97;;;17.27;;
9076;SDS011;4574;51.072;17.174;2022-11-20T08:41:33;55.73;;;25.13;;
9076;SDS011;4574;51.072;17.174;2022-11-20T08:44:03;32.47;;;17.73;;
9076;SDS011;4574;51.072;17.174;2022-11-20T08:46:34;33.10;;;17.97;;
9076;SDS011;4574;51.072;17.174;2022-11-20T08:49:04;32.40;;;18.83;;
9076;SDS011;4574;51.072;17.174;2022-11-20T08:51:34;33.97;;;18.90;;
9076;SDS011;4574;51.072;17.174;2022-11-20T08:54:03;31.53;;;16.80;;
9076;SDS011;4574;51.072;17.174;2022-11-20T08:56:34;29.60;;;17.00;;
9076;SDS011;4574;51.072;17.174;2022-11-20T08:59:03;30.87;;;18.47;;
9076;SDS011;4574;51.072;17.174;2022-11-20T09:01:52;32.03;;;17.27;;
9076;SDS011;4574;51.072;17.174;2022-11-20T09:04:20;32.10;;;18.07;;
9076;SDS011;4574;51.072;17.174;2022-11-20T09:06:49;35.17;;;18.40;;
9076;SDS011;4574;51.072;17.174;2022-11-20T09:09:19;28.07;;;16.23;;
9076;SDS011;4574;51.072;17.174;2022-11-20T09:11:48;26.53;;;15.20;;
9076;SDS011;4574;51.072;17.174;2022-11-20T09:14:17;29.33;;;15.50;;
9076;SDS011;4574;51.072;17.174;2022-11-20T09:16:46;25.33;;;15.17;;
9076;SDS011;4574;51.072;17.174;2022-11-20T09:19:14;27.27;;;15.40;;
9076;SDS011;4574;51.072;17.174;2022-11-20T09:22:02;30.20;;;15.10;;
9076;SDS011;4574;51.072;17.174;2022-11-20T09:24:32;25.77;;;14.83;;
9076;SDS011;4574;51.072;17.174;2022-11-20T09:27:01;27.47;;;15.80;;
9076;SDS011;4574;51.072;17.174;2022-11-20T09:29:31;27.70;;;17.37;;
9076;SDS011;4574;51.072;17.174;2022-11-20T09:32:00;27.73;;;16.83;;
9076;SDS011;4574;51.072;17.174;2022-11-20T09:34:28;30.57;;;17.33;;
9076;SDS011;4574;51.072;17.174;2022-11-20T09:36:57;29.47;;;16.00;;
9076;SDS011;4574;51.072;17.174;2022-11-20T09:39:33;28.57;;;16.53;;
9076;SDS011;4574;51.072;17.174;2022-11-20T09:42:10;27.03;;;16.10;;
9076;SDS011;4574;51.072;17.174;2022-11-20T09:45:00;26.63;;;15.40;;
9076;SDS011;4574;51.072;17.174;2022-11-20T09:47:44;26.20;;;15.80;;
9076;SDS011;4574;51.072;17.174;2022-11-20T09:50:24;29.87;;;16.60;;
9076;SDS011;4574;51.072;17.174;2022-11-20T09:53:04;30.43;;;16.67;;
9076;SDS011;4574;51.072;17.174;2022-11-20T09:55:41;31.17;;;16.37;;
9076;SDS011;4574;51.072;17.174;2022-11-20T09:58:12;30.53;;;18.10;;
9076;SDS011;4574;51.072;17.174;2022-11-20T10:00:44;30.60;;;16.13;;
9076;SDS011;4574;51.072;17.174;2022-11-20T10:03:14;35.43;;;18.53;;
9076;SDS011;4574;51.072;17.174;2022-11-20T10:05:47;33.93;;;19.00;;
9076;SDS011;4574;51.072;17.174;2022-11-20T10:08:19;33.20;;;17.97;;
9076;SDS011;4574;51.072;17.174;2022-11-20T10:10:53;32.17;;;17.10;;
9076;SDS011;4574;51.072;17.174;2022-11-20T10:13:31;24.87;;;14.73;;
9076;SDS011;4574;51.072;17.174;2022-11-20T10:16:11;26.83;;;15.57;;
9076;SDS011;4574;51.072;17.174;2022-11-20T10:18:50;33.17;;;17.70;;
9076;SDS011;4574;51.072;17.174;2022-11-20T10:21:30;30.03;;;16.83;;
9076;SDS011;4574;51.072;17.174;2022-11-20T10:24:13;27.10;;;15.60;;
9076;SDS011;4574;51.072;17.174;2022-11-20T10:27:01;31.73;;;16.60;;
9076;SDS011;4574;51.072;17.174;2022-11-20T10:29:42;27.03;;;15.53;;
9076;SDS011;4574;51.072;17.174;2022-11-20T10:32:14;26.43;;;16.30;;
9076;SDS011;4574;51.072;17.174;2022-11-20T10:34:46;24.43;;;14.90;;
9076;SDS011;4574;51.072;17.174;2022-11-20T10:37:21;27.23;;;15.33;;
9076;SDS011;4574;51.072;17.174;2022-11-20T10:39:54;26.80;;;15.17;;
9076;SDS011;4574;51.072;17.174;2022-11-20T10:42:30;27.70;;;15.47;;
9076;SDS011;4574;51.072;17.174;2022-11-20T10:45:09;27.13;;;15.93;;
9076;SDS011;4574;51.072;17.174;2022-11-20T10:47:46;28.57;;;15.30;;
9076;SDS011;4574;51.072;17.174;2022-11-20T10:50:16;28.30;;;15.03;;
9076;SDS011;4574;51.072;17.174;2022-11-20T10:52:50;26.03;;;14.37;;
9076;SDS011;4574;51.072;17.174;2022-11-20T10:55:26;27.03;;;15.53;;
9076;SDS011;4574;51.072;17.174;2022-11-20T10:58:04;26.17;;;15.17;;
9076;SDS011;4574;51.072;17.174;2022-11-20T11:00:41;26.37;;;15.07;;
9076;SDS011;4574;51.072;17.174;2022-11-20T11:03:14;27.23;;;14.27;;
9076;SDS011;4574;51.072;17.174;2022-11-20T11:05:50;24.53;;;14.23;;
9076;SDS011;4574;51.072;17.174;2022-11-20T11:08:26;25.13;;;13.70;;
9076;SDS011;4574;51.072;17.174;2022-11-20T11:11:00;26.03;;;14.40;;
9076;SDS011;4574;51.072;17.174;2022-11-20T11:13:49;27.10;;;14.70;;
9076;SDS011;4574;51.072;17.174;2022-11-20T11:16:22;24.53;;;14.33;;
9076;SDS011;4574;51.072;17.174;2022-11-20T11:18:52;24.90;;;13.13;;
9076;SDS011;4574;51.072;17.174;2022-11-20T11:21:31;29.70;;;15.57;;
9076;SDS011;4574;51.072;17.174;2022-11-20T11:24:00;24.30;;;13.80;;
9076;SDS011;4574;51.072;17.174;2022-11-20T11:26:52;27.77;;;14.67;;
9076;SDS011;4574;51.072;17.174;2022-11-20T11:29:26;30.37;;;15.13;;
9076;SDS011;4574;51.072;17.174;2022-11-20T11:32:03;25.37;;;13.53;;
9076;SDS011;4574;51.072;17.174;2022-11-20T11:34:33;22.50;;;11.53;;
9076;SDS011;4574;51.072;17.174;2022-11-20T11:37:02;18.87;;;11.53;;
9076;SDS011;4574;51.072;17.174;2022-11-20T11:39:31;20.33;;;12.40;;
9076;SDS011;4574;51.072;17.174;2022-11-20T11:42:01;19.00;;;11.00;;
9076;SDS011;4574;51.072;17.174;2022-11-20T11:44:31;18.17;;;10.90;;
9076;SDS011;4574;51.072;17.174;2022-11-20T11:47:21;18.60;;;11.13;;
9076;SDS011;4574;51.072;17.174;2022-11-20T11:50:00;20.20;;;12.40;;
9076;SDS011;4574;51.072;17.174;2022-11-20T11:52:30;22.43;;;13.03;;
9076;SDS011;4574;51.072;17.174;2022-11-20T11:55:04;22.50;;;12.97;;
9076;SDS011;4574;51.072;17.174;2022-11-20T11:57:40;18.13;;;11.50;;
9076;SDS011;4574;51.072;17.174;2022-11-20T12:00:16;22.30;;;12.47;;
9076;SDS011;4574;51.072;17.174;2022-11-20T12:02:52;25.33;;;15.63;;
9076;SDS011;4574;51.072;17.174;2022-11-20T12:05:31;25.27;;;16.50;;
9076;SDS011;4574;51.072;17.174;2022-11-20T12:08:09;19.50;;;12.40;;
9076;SDS011;4574;51.072;17.174;2022-11-20T12:10:45;19.13;;;11.87;;
9076;SDS011;4574;51.072;17.174;2022-11-20T12:13:32;26.67;;;17.20;;
9076;SDS011;4574;51.072;17.174;2022-11-20T12:16:10;17.20;;;11.63;;
9076;SDS011;4574;51.072;17.174;2022-11-20T12:18:41;17.97;;;12.47;;
9076;SDS011;4574;51.072;17.174;2022-11-20T12:21:18;21.57;;;12.73;;
9076;SDS011;4574;51.072;17.174;2022-11-20T12:23:54;24.60;;;12.27;;
9076;SDS011;4574;51.072;17.174;2022-11-20T12:26:51;22.33;;;12.33;;
9076;SDS011;4574;51.072;17.174;2022-11-20T12:29:33;19.00;;;10.43;;
9076;SDS011;4574;51.072;17.174;2022-11-20T12:32:22;18.60;;;11.17;;
9076;SDS011;4574;51.072;17.174;2022-11-20T12:35:08;19.10;;;11.27;;
9076;SDS011;4574;51.072;17.174;2022-11-20T12:37:52;16.77;;;10.50;;
9076;SDS011;4574;51.072;17.174;2022-11-20T12:40:38;17.67;;;10.50;;
9076;SDS011;4574;51.072;17.174;2022-11-20T12:43:14;17.87;;;10.50;;
9076;SDS011;4574;51.072;17.174;2022-11-20T12:46:16;15.90;;;10.43;;
9076;SDS011;4574;51.072;17.174;2022-11-20T12:51:58;14.07;;;9.23;;
9076;SDS011;4574;51.072;17.174;2022-11-20T12:54:54;12.90;;;9.27;;
9076;SDS011;4574;51.072;17.174;2022-11-20T12:57:42;15.40;;;9.23;;
9076;SDS011;4574;51.072;17.174;2022-11-20T13:00:18;12.63;;;8.87;;
9076;SDS011;4574;51.072;17.174;2022-11-20T13:05:52;16.17;;;9.87;;
9076;SDS011;4574;51.072;17.174;2022-11-20T13:08:28;17.10;;;9.13;;
9076;SDS011;4574;51.072;17.174;2022-11-20T13:11:01;15.40;;;8.80;;
9076;SDS011;4574;51.072;17.174;2022-11-20T13:13:41;12.97;;;8.37;;
9076;SDS011;4574;51.072;17.174;2022-11-20T13:16:18;13.77;;;8.50;;
9076;SDS011;4574;51.072;17.174;2022-11-20T13:18:54;14.10;;;8.70;;
9076;SDS011;4574;51.072;17.174;2022-11-20T13:21:34;13.30;;;8.77;;
9076;SDS011;4574;51.072;17.174;2022-11-20T13:24:05;13.40;;;9.43;;
9076;SDS011;4574;51.072;17.174;2022-11-20T13:26:34;13.77;;;9.10;;
9076;SDS011;4574;51.072;17.174;2022-11-20T13:29:04;15.13;;;9.67;;
9076;SDS011;4574;51.072;17.174;2022-11-20T13:31:38;16.17;;;9.97;;
9076;SDS011;4574;51.072;17.174;2022-11-20T13:34:11;14.27;;;9.70;;
9076;SDS011;4574;51.072;17.174;2022-11-20T13:36:53;14.03;;;9.27;;
9076;SDS011;4574;51.072;17.174;2022-11-20T13:39:26;31.33;;;16.20;;
9076;SDS011;4574;51.072;17.174;2022-11-20T13:41:56;29.87;;;14.33;;
9076;SDS011;4574;51.072;17.174;2022-11-20T13:44:27;17.40;;;10.17;;
9076;SDS011;4574;51.072;17.174;2022-11-20T13:47:01;14.07;;;9.00;;
9076;SDS011;4574;51.072;17.174;2022-11-20T13:49:31;13.77;;;8.67;;
9076;SDS011;4574;51.072;17.174;2022-11-20T13:52:22;12.30;;;8.53;;
9076;SDS011;4574;51.072;17.174;2022-11-20T13:55:11;15.67;;;10.27;;
9076;SDS011;4574;51.072;17.174;2022-11-20T13:58:02;31.80;;;17.73;;
9076;SDS011;4574;51.072;17.174;2022-11-20T14:00:44;143.47;;;55.13;;
9076;SDS011;4574;51.072;17.174;2022-11-20T14:03:17;27.37;;;16.63;;
9076;SDS011;4574;51.072;17.174;2022-11-20T14:06:11;21.30;;;14.10;;
9076;SDS011;4574;51.072;17.174;2022-11-20T14:08:44;18.20;;;11.70;;
9076;SDS011;4574;51.072;17.174;2022-11-20T14:11:17;18.10;;;10.70;;
9076;SDS011;4574;51.072;17.174;2022-11-20T14:13:51;18.07;;;9.50;;
9076;SDS011;4574;51.072;17.174;2022-11-20T14:16:25;96.47;;;41.87;;
9076;SDS011;4574;51.072;17.174;2022-11-20T14:18:55;79.73;;;43.20;;
9076;SDS011;4574;51.072;17.174;2022-11-20T14:21:25;37.33;;;23.80;;
9076;SDS011;4574;51.072;17.174;2022-11-20T14:24:07;34.07;;;22.57;;
9076;SDS011;4574;51.072;17.174;2022-11-20T14:26:41;31.13;;;18.67;;
9076;SDS011;4574;51.072;17.174;2022-11-20T14:29:11;22.70;;;15.30;;
9076;SDS011;4574;51.072;17.174;2022-11-20T14:31:41;21.03;;;13.50;;
9076;SDS011;4574;51.072;17.174;2022-11-20T14:34:17;19.10;;;11.47;;
9076;SDS011;4574;51.072;17.174;2022-11-20T14:36:48;23.43;;;15.20;;
9076;SDS011;4574;51.072;17.174;2022-11-20T14:39:21;19.27;;;11.33;;
9076;SDS011;4574;51.072;17.174;2022-11-20T14:41:53;16.33;;;10.00;;
9076;SDS011;4574;51.072;17.174;2022-11-20T14:44:23;16.53;;;10.10;;
9076;SDS011;4574;51.072;17.174;2022-11-20T14:46:55;17.50;;;11.17;;
9076;SDS011;4574;51.072;17.174;2022-11-20T14:49:24;21.03;;;11.53;;
9076;SDS011;4574;51.072;17.174;2022-11-20T14:52:00;16.50;;;10.90;;
9076;SDS011;4574;51.072;17.174;2022-11-20T14:54:31;19.37;;;11.53;;
9076;SDS011;4574;51.072;17.174;2022-11-20T14:57:00;17.37;;;11.13;;
9076;SDS011;4574;51.072;17.174;2022-11-20T14:59:31;19.00;;;11.60;;
9076;SDS011;4574;51.072;17.174;2022-11-20T15:02:01;20.00;;;12.10;;
9076;SDS011;4574;51.072;17.174;2022-11-20T15:04:34;23.70;;;13.00;;
9076;SDS011;4574;51.072;17.174;2022-11-20T15:07:22;28.73;;;14.93;;
9076;SDS011;4574;51.072;17.174;2022-11-20T15:10:03;26.27;;;15.37;;
9076;SDS011;4574;51.072;17.174;2022-11-20T15:12:34;18.87;;;12.43;;